sensor_id;sensor_type;location;lat;lon;timestamp;P1;durP1;ratioP1;P2;durP2;ratioP2
55069;SDS011;40967;52.070;8.596;2024-02-23T00:01:29;2.95;;;0.85;;
55069;SDS011;40967;52.070;8.596;2024-02-23T00:03:56;4.70;;;0.77;;
55069;SDS011;40967;52.070;8.596;2024-02-23T00:06:24;3.20;;;0.52;;
55069;SDS011;40967;52.070;8.596;2024-02-23T00:08:54;3.03;;;0.55;;
55069;SDS011;40967;52.070;8.596;2024-02-23T00:11:21;3.47;;;0.55;;
55069;SDS011;40967;52.070;8.596;2024-02-23T00:13:47;3.63;;;0.60;;
55069;SDS011;40967;52.070;8.596;2024-02-23T00:16:14;3.38;;;1.00;;
55069;SDS011;40967;52.070;8.596;2024-02-23T00:18:41;4.13;;;0.45;;
55069;SDS011;40967;52.070;8.596;2024-02-23T00:21:07;1.88;;;0.57;;
55069;SDS011;40967;52.070;8.596;2024-02-23T00:23:34;3.55;;;0.70;;
55069;SDS011;40967;52.070;8.596;2024-02-23T00:26:03;2.20;;;0.50;;
55069;SDS011;40967;52.070;8.596;2024-02-23T00:28:29;2.63;;;0.50;;
55069;SDS011;40967;52.070;8.596;2024-02-23T00:30:56;1.30;;;0.40;;
55069;SDS011;40967;52.070;8.596;2024-02-23T00:33:23;3.88;;;0.77;;
55069;SDS011;40967;52.070;8.596;2024-02-23T00:35:52;3.53;;;0.47;;
55069;SDS011;40967;52.070;8.596;2024-02-23T00:38:19;1.90;;;0.47;;
55069;SDS011;40967;52.070;8.596;2024-02-23T00:40:48;1.40;;;0.50;;
55069;SDS011;40967;52.070;8.596;2024-02-23T00:43:18;3.05;;;0.50;;
55069;SDS011;40967;52.070;8.596;2024-02-23T00:45:45;1.30;;;0.47;;
55069;SDS011;40967;52.070;8.596;2024-02-23T00:48:12;2.35;;;0.65;;
55069;SDS011;40967;52.070;8.596;2024-02-23T00:50:38;2.00;;;0.60;;
55069;SDS011;40967;52.070;8.596;2024-02-23T00:53:05;1.88;;;0.55;;
55069;SDS011;40967;52.070;8.596;2024-02-23T00:55:35;2.80;;;0.60;;
55069;SDS011;40967;52.070;8.596;2024-02-23T00:58:04;0.90;;;0.30;;
55069;SDS011;40967;52.070;8.596;2024-02-23T01:00:35;1.27;;;0.50;;
55069;SDS011;40967;52.070;8.596;2024-02-23T01:03:02;0.63;;;0.40;;
55069;SDS011;40967;52.070;8.596;2024-02-23T01:05:29;0.30;;;0.30;;
55069;SDS011;40967;52.070;8.596;2024-02-23T01:07:55;0.70;;;0.30;;
55069;SDS011;40967;52.070;8.596;2024-02-23T01:10:22;0.43;;;0.33;;
55069;SDS011;40967;52.070;8.596;2024-02-23T01:12:49;0.90;;;0.30;;
55069;SDS011;40967;52.070;8.596;2024-02-23T01:15:16;0.52;;;0.20;;
55069;SDS011;40967;52.070;8.596;2024-02-23T01:17:44;0.43;;;0.20;;
55069;SDS011;40967;52.070;8.596;2024-02-23T01:20:11;0.80;;;0.30;;
55069;SDS011;40967;52.070;8.596;2024-02-23T01:22:38;0.60;;;0.22;;
55069;SDS011;40967;52.070;8.596;2024-02-23T01:25:08;0.20;;;0.20;;
55069;SDS011;40967;52.070;8.596;2024-02-23T01:27:35;0.20;;;0.20;;
55069;SDS011;40967;52.070;8.596;2024-02-23T01:30:02;0.13;;;0.13;;
55069;SDS011;40967;52.070;8.596;2024-02-23T01:32:29;0.30;;;0.20;;
55069;SDS011;40967;52.070;8.596;2024-02-23T01:34:58;0.50;;;0.20;;
55069;SDS011;40967;52.070;8.596;2024-02-23T01:37:24;0.30;;;0.10;;
55069;SDS011;40967;52.070;8.596;2024-02-23T01:39:51;0.35;;;0.25;;
55069;SDS011;40967;52.070;8.596;2024-02-23T01:42:18;1.35;;;0.30;;
55069;SDS011;40967;52.070;8.596;2024-02-23T01:44:44;0.40;;;0.30;;
55069;SDS011;40967;52.070;8.596;2024-02-23T01:47:11;0.40;;;0.40;;
55069;SDS011;40967;52.070;8.596;2024-02-23T01:49:38;0.80;;;0.45;;
55069;SDS011;40967;52.070;8.596;2024-02-23T01:52:11;0.60;;;0.40;;
55069;SDS011;40967;52.070;8.596;2024-02-23T01:54:39;1.75;;;0.50;;
55069;SDS011;40967;52.070;8.596;2024-02-23T01:57:06;1.85;;;0.50;;
55069;SDS011;40967;52.070;8.596;2024-02-23T01:59:35;0.65;;;0.45;;
55069;SDS011;40967;52.070;8.596;2024-02-23T02:02:03;0.73;;;0.40;;
55069;SDS011;40967;52.070;8.596;2024-02-23T02:04:32;0.65;;;0.52;;
55069;SDS011;40967;52.070;8.596;2024-02-23T02:06:59;2.03;;;0.80;;
55069;SDS011;40967;52.070;8.596;2024-02-23T02:09:28;2.95;;;0.80;;
55069;SDS011;40967;52.070;8.596;2024-02-23T02:11:54;1.58;;;0.70;;
55069;SDS011;40967;52.070;8.596;2024-02-23T02:14:21;2.50;;;0.80;;
55069;SDS011;40967;52.070;8.596;2024-02-23T02:16:48;1.50;;;0.60;;
55069;SDS011;40967;52.070;8.596;2024-02-23T02:19:16;2.08;;;0.60;;
55069;SDS011;40967;52.070;8.596;2024-02-23T02:21:43;1.20;;;0.63;;
55069;SDS011;40967;52.070;8.596;2024-02-23T02:24:10;1.50;;;0.70;;
55069;SDS011;40967;52.070;8.596;2024-02-23T02:26:38;1.38;;;0.73;;
55069;SDS011;40967;52.070;8.596;2024-02-23T02:29:08;1.35;;;0.70;;
55069;SDS011;40967;52.070;8.596;2024-02-23T02:31:34;0.90;;;0.50;;
55069;SDS011;40967;52.070;8.596;2024-02-23T02:34:02;0.95;;;0.57;;
55069;SDS011;40967;52.070;8.596;2024-02-23T02:36:29;0.95;;;0.52;;
55069;SDS011;40967;52.070;8.596;2024-02-23T02:38:56;1.00;;;0.52;;
55069;SDS011;40967;52.070;8.596;2024-02-23T02:41:23;1.30;;;0.73;;
55069;SDS011;40967;52.070;8.596;2024-02-23T02:43:55;1.70;;;0.97;;
55069;SDS011;40967;52.070;8.596;2024-02-23T02:46:21;2.22;;;0.85;;
55069;SDS011;40967;52.070;8.596;2024-02-23T02:48:48;1.50;;;1.00;;
55069;SDS011;40967;52.070;8.596;2024-02-23T02:51:15;1.77;;;1.02;;
55069;SDS011;40967;52.070;8.596;2024-02-23T02:53:42;1.83;;;1.00;;
55069;SDS011;40967;52.070;8.596;2024-02-23T02:56:08;3.25;;;1.40;;
55069;SDS011;40967;52.070;8.596;2024-02-23T02:58:35;2.10;;;1.10;;
55069;SDS011;40967;52.070;8.596;2024-02-23T03:01:06;3.00;;;1.40;;
55069;SDS011;40967;52.070;8.596;2024-02-23T03:03:34;3.42;;;1.33;;
55069;SDS011;40967;52.070;8.596;2024-02-23T03:06:00;4.10;;;1.60;;
55069;SDS011;40967;52.070;8.596;2024-02-23T03:08:26;2.70;;;1.50;;
55069;SDS011;40967;52.070;8.596;2024-02-23T03:10:56;2.55;;;1.30;;
55069;SDS011;40967;52.070;8.596;2024-02-23T03:13:23;2.85;;;1.30;;
55069;SDS011;40967;52.070;8.596;2024-02-23T03:15:51;4.22;;;1.30;;
55069;SDS011;40967;52.070;8.596;2024-02-23T03:18:19;3.63;;;1.30;;
55069;SDS011;40967;52.070;8.596;2024-02-23T03:20:46;2.55;;;1.17;;
55069;SDS011;40967;52.070;8.596;2024-02-23T03:23:12;3.03;;;1.02;;
55069;SDS011;40967;52.070;8.596;2024-02-23T03:25:39;3.10;;;1.00;;
55069;SDS011;40967;52.070;8.596;2024-02-23T03:28:06;3.17;;;1.30;;
55069;SDS011;40967;52.070;8.596;2024-02-23T03:30:36;3.05;;;1.20;;
55069;SDS011;40967;52.070;8.596;2024-02-23T03:33:03;3.63;;;1.00;;
55069;SDS011;40967;52.070;8.596;2024-02-23T03:35:31;2.93;;;1.00;;
55069;SDS011;40967;52.070;8.596;2024-02-23T03:38:00;4.28;;;1.23;;
55069;SDS011;40967;52.070;8.596;2024-02-23T03:40:27;2.50;;;1.00;;
55069;SDS011;40967;52.070;8.596;2024-02-23T03:42:54;2.05;;;0.77;;
55069;SDS011;40967;52.070;8.596;2024-02-23T03:45:20;4.27;;;1.07;;
55069;SDS011;40967;52.070;8.596;2024-02-23T03:47:47;3.55;;;0.93;;
55069;SDS011;40967;52.070;8.596;2024-02-23T03:50:13;3.00;;;1.20;;
55069;SDS011;40967;52.070;8.596;2024-02-23T03:52:45;3.03;;;0.95;;
55069;SDS011;40967;52.070;8.596;2024-02-23T03:55:11;5.07;;;1.20;;
55069;SDS011;40967;52.070;8.596;2024-02-23T03:57:40;3.03;;;0.95;;
55069;SDS011;40967;52.070;8.596;2024-02-23T04:00:07;4.20;;;1.20;;
55069;SDS011;40967;52.070;8.596;2024-02-23T04:02:34;3.50;;;1.10;;
55069;SDS011;40967;52.070;8.596;2024-02-23T04:05:01;1.83;;;0.73;;
55069;SDS011;40967;52.070;8.596;2024-02-23T04:07:28;4.10;;;0.80;;
55069;SDS011;40967;52.070;8.596;2024-02-23T04:09:56;3.23;;;0.83;;
55069;SDS011;40967;52.070;8.596;2024-02-23T04:12:23;2.75;;;0.85;;
55069;SDS011;40967;52.070;8.596;2024-02-23T04:14:49;3.85;;;0.90;;
55069;SDS011;40967;52.070;8.596;2024-02-23T04:17:16;2.85;;;0.73;;
55069;SDS011;40967;52.070;8.596;2024-02-23T04:19:44;2.88;;;0.73;;
55069;SDS011;40967;52.070;8.596;2024-02-23T04:22:10;2.13;;;0.68;;
55069;SDS011;40967;52.070;8.596;2024-02-23T04:24:37;3.65;;;0.80;;
55069;SDS011;40967;52.070;8.596;2024-02-23T04:27:07;4.32;;;1.05;;
55069;SDS011;40967;52.070;8.596;2024-02-23T04:29:40;3.92;;;0.80;;
55069;SDS011;40967;52.070;8.596;2024-02-23T04:32:07;3.13;;;0.60;;
55069;SDS011;40967;52.070;8.596;2024-02-23T04:34:33;2.00;;;0.60;;
55069;SDS011;40967;52.070;8.596;2024-02-23T04:37:01;3.55;;;0.85;;
55069;SDS011;40967;52.070;8.596;2024-02-23T04:39:28;6.60;;;1.07;;
55069;SDS011;40967;52.070;8.596;2024-02-23T04:41:54;3.95;;;0.70;;
55069;SDS011;40967;52.070;8.596;2024-02-23T04:44:25;6.90;;;0.80;;
55069;SDS011;40967;52.070;8.596;2024-02-23T04:46:52;1.77;;;0.68;;
55069;SDS011;40967;52.070;8.596;2024-02-23T04:49:18;4.47;;;0.70;;
55069;SDS011;40967;52.070;8.596;2024-02-23T04:51:45;2.55;;;0.75;;
55069;SDS011;40967;52.070;8.596;2024-02-23T04:54:13;1.85;;;0.70;;
55069;SDS011;40967;52.070;8.596;2024-02-23T04:56:40;5.30;;;0.82;;
55069;SDS011;40967;52.070;8.596;2024-02-23T04:59:07;5.30;;;0.82;;
55069;SDS011;40967;52.070;8.596;2024-02-23T05:01:38;6.43;;;0.93;;
55069;SDS011;40967;52.070;8.596;2024-02-23T05:04:06;2.60;;;0.77;;
55069;SDS011;40967;52.070;8.596;2024-02-23T05:06:32;5.47;;;1.52;;
55069;SDS011;40967;52.070;8.596;2024-02-23T05:09:00;19.08;;;8.00;;
55069;SDS011;40967;52.070;8.596;2024-02-23T05:11:27;17.10;;;7.77;;
55069;SDS011;40967;52.070;8.596;2024-02-23T05:13:53;15.18;;;6.05;;
55069;SDS011;40967;52.070;8.596;2024-02-23T05:16:20;17.60;;;8.05;;
55069;SDS011;40967;52.070;8.596;2024-02-23T05:18:48;16.20;;;7.32;;
55069;SDS011;40967;52.070;8.596;2024-02-23T05:21:14;10.55;;;3.28;;
55069;SDS011;40967;52.070;8.596;2024-02-23T05:23:42;55.00;;;19.25;;
55069;SDS011;40967;52.070;8.596;2024-02-23T05:26:09;21.17;;;7.65;;
55069;SDS011;40967;52.070;8.596;2024-02-23T05:28:38;16.10;;;6.03;;
55069;SDS011;40967;52.070;8.596;2024-02-23T05:31:04;9.07;;;2.92;;
55069;SDS011;40967;52.070;8.596;2024-02-23T05:33:35;6.38;;;2.13;;
55069;SDS011;40967;52.070;8.596;2024-02-23T05:36:05;7.03;;;2.22;;
55069;SDS011;40967;52.070;8.596;2024-02-23T05:38:32;11.10;;;5.20;;
55069;SDS011;40967;52.070;8.596;2024-02-23T05:40:59;9.73;;;4.03;;
55069;SDS011;40967;52.070;8.596;2024-02-23T05:43:26;8.45;;;3.83;;
55069;SDS011;40967;52.070;8.596;2024-02-23T05:45:56;5.82;;;2.08;;
55069;SDS011;40967;52.070;8.596;2024-02-23T05:48:33;3.88;;;1.50;;
55069;SDS011;40967;52.070;8.596;2024-02-23T05:51:06;3.30;;;1.30;;
55069;SDS011;40967;52.070;8.596;2024-02-23T05:53:36;4.25;;;1.17;;
55069;SDS011;40967;52.070;8.596;2024-02-23T05:56:03;3.40;;;0.80;;
55069;SDS011;40967;52.070;8.596;2024-02-23T05:58:36;2.70;;;0.88;;
55069;SDS011;40967;52.070;8.596;2024-02-23T06:01:03;3.15;;;1.10;;
55069;SDS011;40967;52.070;8.596;2024-02-23T06:03:38;4.45;;;1.13;;
55069;SDS011;40967;52.070;8.596;2024-02-23T06:06:08;6.65;;;1.58;;
55069;SDS011;40967;52.070;8.596;2024-02-23T06:08:35;5.03;;;1.30;;
55069;SDS011;40967;52.070;8.596;2024-02-23T06:11:02;5.57;;;1.37;;
55069;SDS011;40967;52.070;8.596;2024-02-23T06:13:29;2.95;;;1.00;;
55069;SDS011;40967;52.070;8.596;2024-02-23T06:15:58;3.00;;;1.25;;
55069;SDS011;40967;52.070;8.596;2024-02-23T06:18:25;5.43;;;1.40;;
55069;SDS011;40967;52.070;8.596;2024-02-23T06:20:52;4.63;;;1.20;;
55069;SDS011;40967;52.070;8.596;2024-02-23T06:23:20;2.78;;;0.98;;
55069;SDS011;40967;52.070;8.596;2024-02-23T06:25:48;5.00;;;1.40;;
55069;SDS011;40967;52.070;8.596;2024-02-23T06:28:15;10.68;;;3.97;;
55069;SDS011;40967;52.070;8.596;2024-02-23T06:30:43;8.00;;;2.70;;
55069;SDS011;40967;52.070;8.596;2024-02-23T06:33:10;6.55;;;2.40;;
55069;SDS011;40967;52.070;8.596;2024-02-23T06:35:38;4.78;;;1.73;;
55069;SDS011;40967;52.070;8.596;2024-02-23T06:38:05;6.22;;;1.65;;
55069;SDS011;40967;52.070;8.596;2024-02-23T06:40:33;5.40;;;1.47;;
55069;SDS011;40967;52.070;8.596;2024-02-23T06:43:00;4.10;;;1.25;;
55069;SDS011;40967;52.070;8.596;2024-02-23T06:45:27;5.43;;;1.00;;
55069;SDS011;40967;52.070;8.596;2024-02-23T06:47:53;5.20;;;1.30;;
55069;SDS011;40967;52.070;8.596;2024-02-23T06:50:26;5.85;;;1.17;;
55069;SDS011;40967;52.070;8.596;2024-02-23T06:52:53;6.20;;;1.50;;
55069;SDS011;40967;52.070;8.596;2024-02-23T06:55:20;5.05;;;1.20;;
55069;SDS011;40967;52.070;8.596;2024-02-23T06:57:48;3.95;;;1.48;;
55069;SDS011;40967;52.070;8.596;2024-02-23T07:00:15;4.35;;;1.63;;
55069;SDS011;40967;52.070;8.596;2024-02-23T07:02:42;5.55;;;2.95;;
55069;SDS011;40967;52.070;8.596;2024-02-23T07:05:08;5.43;;;2.35;;
55069;SDS011;40967;52.070;8.596;2024-02-23T07:07:35;5.22;;;1.98;;
55069;SDS011;40967;52.070;8.596;2024-02-23T07:10:03;5.75;;;1.67;;
55069;SDS011;40967;52.070;8.596;2024-02-23T07:12:30;5.57;;;1.70;;
55069;SDS011;40967;52.070;8.596;2024-02-23T07:15:01;4.85;;;1.00;;
55069;SDS011;40967;52.070;8.596;2024-02-23T07:17:28;4.23;;;1.00;;
55069;SDS011;40967;52.070;8.596;2024-02-23T07:19:55;4.47;;;1.60;;
55069;SDS011;40967;52.070;8.596;2024-02-23T07:22:29;4.72;;;1.60;;
55069;SDS011;40967;52.070;8.596;2024-02-23T07:24:56;5.67;;;2.20;;
55069;SDS011;40967;52.070;8.596;2024-02-23T07:27:23;6.63;;;2.45;;
55069;SDS011;40967;52.070;8.596;2024-02-23T07:29:50;5.43;;;2.05;;
55069;SDS011;40967;52.070;8.596;2024-02-23T07:32:18;6.43;;;1.80;;
55069;SDS011;40967;52.070;8.596;2024-02-23T07:34:45;5.07;;;1.40;;
55069;SDS011;40967;52.070;8.596;2024-02-23T07:37:11;3.60;;;1.08;;
55069;SDS011;40967;52.070;8.596;2024-02-23T07:39:39;3.47;;;0.70;;
55069;SDS011;40967;52.070;8.596;2024-02-23T07:42:06;4.10;;;0.60;;
55069;SDS011;40967;52.070;8.596;2024-02-23T07:44:36;3.00;;;0.90;;
55069;SDS011;40967;52.070;8.596;2024-02-23T07:47:04;2.90;;;0.60;;
55069;SDS011;40967;52.070;8.596;2024-02-23T07:49:34;4.40;;;1.00;;
55069;SDS011;40967;52.070;8.596;2024-02-23T07:52:05;2.50;;;0.90;;
55069;SDS011;40967;52.070;8.596;2024-02-23T07:54:32;3.07;;;0.80;;
55069;SDS011;40967;52.070;8.596;2024-02-23T07:57:05;2.10;;;0.60;;
55069;SDS011;40967;52.070;8.596;2024-02-23T07:59:32;3.67;;;0.90;;
55069;SDS011;40967;52.070;8.596;2024-02-23T08:01:59;3.53;;;0.90;;
55069;SDS011;40967;52.070;8.596;2024-02-23T08:04:25;3.92;;;0.80;;
55069;SDS011;40967;52.070;8.596;2024-02-23T08:06:53;3.85;;;1.00;;
55069;SDS011;40967;52.070;8.596;2024-02-23T08:09:20;3.83;;;1.08;;
55069;SDS011;40967;52.070;8.596;2024-02-23T08:11:49;3.45;;;1.10;;
55069;SDS011;40967;52.070;8.596;2024-02-23T08:16:43;2.15;;;0.70;;
55069;SDS011;40967;52.070;8.596;2024-02-23T08:19:10;3.53;;;1.00;;
55069;SDS011;40967;52.070;8.596;2024-02-23T08:21:37;2.63;;;0.73;;
55069;SDS011;40967;52.070;8.596;2024-02-23T08:24:06;2.97;;;0.63;;
55069;SDS011;40967;52.070;8.596;2024-02-23T08:26:34;2.33;;;0.70;;
55069;SDS011;40967;52.070;8.596;2024-02-23T08:29:03;1.27;;;0.40;;
55069;SDS011;40967;52.070;8.596;2024-02-23T08:31:30;1.17;;;0.40;;
55069;SDS011;40967;52.070;8.596;2024-02-23T08:33:57;1.52;;;0.50;;
55069;SDS011;40967;52.070;8.596;2024-02-23T08:36:26;2.80;;;0.50;;
55069;SDS011;40967;52.070;8.596;2024-02-23T08:38:53;3.63;;;0.67;;
55069;SDS011;40967;52.070;8.596;2024-02-23T08:41:21;2.47;;;0.60;;
55069;SDS011;40967;52.070;8.596;2024-02-23T08:43:48;3.67;;;0.85;;
55069;SDS011;40967;52.070;8.596;2024-02-23T08:46:17;2.20;;;0.50;;
55069;SDS011;40967;52.070;8.596;2024-02-23T08:48:44;3.67;;;0.47;;
55069;SDS011;40967;52.070;8.596;2024-02-23T08:51:11;1.67;;;0.38;;
55069;SDS011;40967;52.070;8.596;2024-02-23T08:53:38;2.03;;;0.40;;
55069;SDS011;40967;52.070;8.596;2024-02-23T08:56:06;2.08;;;0.50;;
55069;SDS011;40967;52.070;8.596;2024-02-23T08:58:34;2.38;;;0.50;;
55069;SDS011;40967;52.070;8.596;2024-02-23T09:01:00;1.75;;;0.40;;
55069;SDS011;40967;52.070;8.596;2024-02-23T09:03:33;2.70;;;0.67;;
55069;SDS011;40967;52.070;8.596;2024-02-23T09:06:00;3.15;;;0.65;;
55069;SDS011;40967;52.070;8.596;2024-02-23T09:08:28;3.78;;;0.68;;
55069;SDS011;40967;52.070;8.596;2024-02-23T09:10:55;4.10;;;0.70;;
55069;SDS011;40967;52.070;8.596;2024-02-23T09:13:23;3.05;;;0.55;;
55069;SDS011;40967;52.070;8.596;2024-02-23T09:15:54;2.47;;;0.70;;
55069;SDS011;40967;52.070;8.596;2024-02-23T09:18:21;3.20;;;0.47;;
55069;SDS011;40967;52.070;8.596;2024-02-23T09:20:48;1.95;;;0.50;;
55069;SDS011;40967;52.070;8.596;2024-02-23T09:23:15;3.80;;;0.73;;
55069;SDS011;40967;52.070;8.596;2024-02-23T09:25:42;2.25;;;0.60;;
55069;SDS011;40967;52.070;8.596;2024-02-23T09:28:08;3.23;;;0.70;;
55069;SDS011;40967;52.070;8.596;2024-02-23T09:30:36;1.98;;;0.40;;
55069;SDS011;40967;52.070;8.596;2024-02-23T09:33:05;3.23;;;0.57;;
55069;SDS011;40967;52.070;8.596;2024-02-23T09:35:32;3.00;;;0.50;;
55069;SDS011;40967;52.070;8.596;2024-02-23T09:37:58;2.53;;;0.47;;
55069;SDS011;40967;52.070;8.596;2024-02-23T09:40:28;3.30;;;0.60;;
55069;SDS011;40967;52.070;8.596;2024-02-23T09:42:55;1.05;;;0.25;;
55069;SDS011;40967;52.070;8.596;2024-02-23T09:45:24;2.22;;;0.45;;
55069;SDS011;40967;52.070;8.596;2024-02-23T09:47:52;4.88;;;0.90;;
55069;SDS011;40967;52.070;8.596;2024-02-23T09:50:21;2.63;;;0.50;;
55069;SDS011;40967;52.070;8.596;2024-02-23T09:52:49;1.98;;;0.75;;
55069;SDS011;40967;52.070;8.596;2024-02-23T09:55:16;2.25;;;0.60;;
55069;SDS011;40967;52.070;8.596;2024-02-23T09:57:43;2.17;;;0.68;;
55069;SDS011;40967;52.070;8.596;2024-02-23T10:00:11;2.63;;;0.60;;
55069;SDS011;40967;52.070;8.596;2024-02-23T10:02:39;1.95;;;0.52;;
55069;SDS011;40967;52.070;8.596;2024-02-23T10:05:06;3.13;;;0.70;;
55069;SDS011;40967;52.070;8.596;2024-02-23T10:07:38;4.63;;;0.95;;
55069;SDS011;40967;52.070;8.596;2024-02-23T10:10:06;2.92;;;0.50;;
55069;SDS011;40967;52.070;8.596;2024-02-23T10:12:33;2.45;;;0.57;;
55069;SDS011;40967;52.070;8.596;2024-02-23T10:15:05;2.10;;;0.60;;
55069;SDS011;40967;52.070;8.596;2024-02-23T10:17:32;1.40;;;0.40;;
55069;SDS011;40967;52.070;8.596;2024-02-23T10:20:02;2.78;;;0.57;;
55069;SDS011;40967;52.070;8.596;2024-02-23T10:22:30;2.67;;;0.70;;
55069;SDS011;40967;52.070;8.596;2024-02-23T10:25:00;1.63;;;0.47;;
55069;SDS011;40967;52.070;8.596;2024-02-23T10:27:27;2.30;;;0.50;;
55069;SDS011;40967;52.070;8.596;2024-02-23T10:29:54;2.25;;;0.55;;
55069;SDS011;40967;52.070;8.596;2024-02-23T10:32:21;1.75;;;0.43;;
55069;SDS011;40967;52.070;8.596;2024-02-23T10:34:49;2.35;;;0.65;;
55069;SDS011;40967;52.070;8.596;2024-02-23T10:37:18;3.25;;;0.75;;
55069;SDS011;40967;52.070;8.596;2024-02-23T10:39:48;3.05;;;0.80;;
55069;SDS011;40967;52.070;8.596;2024-02-23T10:42:21;2.60;;;0.57;;
55069;SDS011;40967;52.070;8.596;2024-02-23T10:44:50;3.53;;;1.05;;
55069;SDS011;40967;52.070;8.596;2024-02-23T10:47:17;2.85;;;0.50;;
55069;SDS011;40967;52.070;8.596;2024-02-23T10:49:46;2.63;;;0.57;;
55069;SDS011;40967;52.070;8.596;2024-02-23T10:52:13;3.58;;;0.55;;
55069;SDS011;40967;52.070;8.596;2024-02-23T10:54:44;2.87;;;0.70;;
55069;SDS011;40967;52.070;8.596;2024-02-23T10:57:13;4.13;;;0.60;;
55069;SDS011;40967;52.070;8.596;2024-02-23T10:59:43;3.33;;;0.60;;
55069;SDS011;40967;52.070;8.596;2024-02-23T11:02:14;2.97;;;0.60;;
55069;SDS011;40967;52.070;8.596;2024-02-23T11:04:48;3.03;;;0.50;;
55069;SDS011;40967;52.070;8.596;2024-02-23T11:07:19;1.42;;;0.47;;
55069;SDS011;40967;52.070;8.596;2024-02-23T11:09:48;2.20;;;0.40;;
55069;SDS011;40967;52.070;8.596;2024-02-23T11:12:22;2.95;;;0.65;;
55069;SDS011;40967;52.070;8.596;2024-02-23T11:14:55;2.55;;;0.50;;
55069;SDS011;40967;52.070;8.596;2024-02-23T11:17:25;2.65;;;0.60;;
55069;SDS011;40967;52.070;8.596;2024-02-23T11:19:54;2.55;;;0.50;;
55069;SDS011;40967;52.070;8.596;2024-02-23T11:22:23;6.57;;;0.87;;
55069;SDS011;40967;52.070;8.596;2024-02-23T11:24:51;1.63;;;0.30;;
55069;SDS011;40967;52.070;8.596;2024-02-23T11:27:18;2.13;;;0.50;;
55069;SDS011;40967;52.070;8.596;2024-02-23T11:29:59;2.47;;;0.57;;
55069;SDS011;40967;52.070;8.596;2024-02-23T11:32:35;1.77;;;0.38;;
55069;SDS011;40967;52.070;8.596;2024-02-23T11:35:05;3.55;;;1.75;;
55069;SDS011;40967;52.070;8.596;2024-02-23T11:37:36;3.67;;;1.42;;
55069;SDS011;40967;52.070;8.596;2024-02-23T11:40:12;2.50;;;1.10;;
55069;SDS011;40967;52.070;8.596;2024-02-23T11:42:39;6.22;;;2.50;;
55069;SDS011;40967;52.070;8.596;2024-02-23T11:45:09;5.78;;;2.60;;
55069;SDS011;40967;52.070;8.596;2024-02-23T11:47:38;9.10;;;2.88;;
55069;SDS011;40967;52.070;8.596;2024-02-23T11:50:13;5.88;;;1.95;;
55069;SDS011;40967;52.070;8.596;2024-02-23T11:52:40;6.00;;;1.73;;
55069;SDS011;40967;52.070;8.596;2024-02-23T11:55:07;5.05;;;1.65;;
55069;SDS011;40967;52.070;8.596;2024-02-23T11:57:35;4.25;;;1.30;;
55069;SDS011;40967;52.070;8.596;2024-02-23T12:00:02;3.28;;;1.10;;
55069;SDS011;40967;52.070;8.596;2024-02-23T12:02:32;4.72;;;1.90;;
55069;SDS011;40967;52.070;8.596;2024-02-23T12:04:59;5.60;;;2.20;;
55069;SDS011;40967;52.070;8.596;2024-02-23T12:07:26;4.87;;;1.70;;
55069;SDS011;40967;52.070;8.596;2024-02-23T12:09:54;3.22;;;1.35;;
55069;SDS011;40967;52.070;8.596;2024-02-23T12:12:29;4.50;;;1.38;;
55069;SDS011;40967;52.070;8.596;2024-02-23T12:14:56;3.33;;;0.93;;
55069;SDS011;40967;52.070;8.596;2024-02-23T12:17:24;2.90;;;0.90;;
55069;SDS011;40967;52.070;8.596;2024-02-23T12:20:06;2.35;;;0.60;;
55069;SDS011;40967;52.070;8.596;2024-02-23T12:22:37;2.70;;;0.68;;
55069;SDS011;40967;52.070;8.596;2024-02-23T12:25:12;2.75;;;0.60;;
55069;SDS011;40967;52.070;8.596;2024-02-23T12:27:42;2.67;;;0.60;;
55069;SDS011;40967;52.070;8.596;2024-02-23T12:30:13;1.70;;;0.40;;
55069;SDS011;40967;52.070;8.596;2024-02-23T12:32:42;1.55;;;0.43;;
55069;SDS011;40967;52.070;8.596;2024-02-23T12:35:12;2.03;;;0.50;;
55069;SDS011;40967;52.070;8.596;2024-02-23T12:37:38;2.17;;;0.50;;
55069;SDS011;40967;52.070;8.596;2024-02-23T12:40:06;4.68;;;1.48;;
55069;SDS011;40967;52.070;8.596;2024-02-23T12:42:34;2.33;;;1.10;;
55069;SDS011;40967;52.070;8.596;2024-02-23T12:45:01;2.88;;;1.10;;
55069;SDS011;40967;52.070;8.596;2024-02-23T12:47:27;1.95;;;0.60;;
55069;SDS011;40967;52.070;8.596;2024-02-23T12:49:54;1.77;;;0.60;;
55069;SDS011;40967;52.070;8.596;2024-02-23T12:52:35;1.75;;;0.50;;
55069;SDS011;40967;52.070;8.596;2024-02-23T12:55:05;2.08;;;0.60;;
55069;SDS011;40967;52.070;8.596;2024-02-23T12:57:37;2.38;;;0.43;;
55069;SDS011;40967;52.070;8.596;2024-02-23T13:00:07;0.90;;;0.20;;
55069;SDS011;40967;52.070;8.596;2024-02-23T13:02:35;2.03;;;0.52;;
55069;SDS011;40967;52.070;8.596;2024-02-23T13:05:12;2.10;;;0.45;;
55069;SDS011;40967;52.070;8.596;2024-02-23T13:07:40;2.55;;;0.65;;
55069;SDS011;40967;52.070;8.596;2024-02-23T13:10:08;1.70;;;0.40;;
55069;SDS011;40967;52.070;8.596;2024-02-23T13:12:38;2.63;;;0.50;;
55069;SDS011;40967;52.070;8.596;2024-02-23T13:15:05;1.80;;;0.43;;
55069;SDS011;40967;52.070;8.596;2024-02-23T13:17:34;3.22;;;0.52;;
55069;SDS011;40967;52.070;8.596;2024-02-23T13:20:02;2.30;;;0.40;;
55069;SDS011;40967;52.070;8.596;2024-02-23T13:22:37;1.80;;;0.30;;
55069;SDS011;40967;52.070;8.596;2024-02-23T13:25:20;1.35;;;0.47;;
55069;SDS011;40967;52.070;8.596;2024-02-23T13:27:49;1.63;;;0.40;;
55069;SDS011;40967;52.070;8.596;2024-02-23T13:30:18;2.15;;;0.40;;
55069;SDS011;40967;52.070;8.596;2024-02-23T13:32:44;1.55;;;0.55;;
55069;SDS011;40967;52.070;8.596;2024-02-23T13:35:12;2.07;;;0.33;;
55069;SDS011;40967;52.070;8.596;2024-02-23T13:37:43;1.42;;;0.40;;
55069;SDS011;40967;52.070;8.596;2024-02-23T13:40:11;1.20;;;0.30;;
55069;SDS011;40967;52.070;8.596;2024-02-23T13:42:38;2.17;;;0.43;;
55069;SDS011;40967;52.070;8.596;2024-02-23T13:45:06;1.55;;;0.40;;
55069;SDS011;40967;52.070;8.596;2024-02-23T13:47:37;2.35;;;0.40;;
55069;SDS011;40967;52.070;8.596;2024-02-23T13:50:05;0.98;;;0.30;;
55069;SDS011;40967;52.070;8.596;2024-02-23T13:52:34;2.33;;;0.47;;
55069;SDS011;40967;52.070;8.596;2024-02-23T13:55:09;0.93;;;0.32;;
55069;SDS011;40967;52.070;8.596;2024-02-23T13:57:36;1.15;;;0.40;;
55069;SDS011;40967;52.070;8.596;2024-02-23T14:00:03;1.73;;;0.35;;
55069;SDS011;40967;52.070;8.596;2024-02-23T14:02:37;0.95;;;0.30;;
55069;SDS011;40967;52.070;8.596;2024-02-23T14:05:07;1.27;;;0.45;;
55069;SDS011;40967;52.070;8.596;2024-02-23T14:07:43;1.90;;;0.50;;
55069;SDS011;40967;52.070;8.596;2024-02-23T14:10:12;0.73;;;0.30;;
55069;SDS011;40967;52.070;8.596;2024-02-23T14:12:40;1.20;;;0.30;;
55069;SDS011;40967;52.070;8.596;2024-02-23T14:15:07;1.45;;;0.40;;
55069;SDS011;40967;52.070;8.596;2024-02-23T14:17:35;2.17;;;0.65;;
55069;SDS011;40967;52.070;8.596;2024-02-23T14:20:02;2.00;;;0.40;;
55069;SDS011;40967;52.070;8.596;2024-02-23T14:22:43;3.58;;;0.50;;
55069;SDS011;40967;52.070;8.596;2024-02-23T14:25:09;1.27;;;0.45;;
55069;SDS011;40967;52.070;8.596;2024-02-23T14:27:45;2.17;;;0.60;;
55069;SDS011;40967;52.070;8.596;2024-02-23T14:30:13;1.63;;;0.40;;
55069;SDS011;40967;52.070;8.596;2024-02-23T14:32:43;2.25;;;0.60;;
55069;SDS011;40967;52.070;8.596;2024-02-23T14:35:13;0.50;;;0.30;;
55069;SDS011;40967;52.070;8.596;2024-02-23T14:37:40;0.90;;;0.35;;
55069;SDS011;40967;52.070;8.596;2024-02-23T14:40:08;0.30;;;0.20;;
55069;SDS011;40967;52.070;8.596;2024-02-23T14:42:38;1.25;;;0.30;;
55069;SDS011;40967;52.070;8.596;2024-02-23T14:45:06;0.63;;;0.30;;
55069;SDS011;40967;52.070;8.596;2024-02-23T14:47:38;1.30;;;0.30;;
55069;SDS011;40967;52.070;8.596;2024-02-23T14:50:07;1.17;;;0.30;;
55069;SDS011;40967;52.070;8.596;2024-02-23T14:52:34;1.73;;;0.40;;
55069;SDS011;40967;52.070;8.596;2024-02-23T14:55:01;1.02;;;0.28;;
55069;SDS011;40967;52.070;8.596;2024-02-23T14:57:28;2.92;;;0.57;;